• Join FlightAware (Why Join?)
  • Login
  • US Flag 
08:57AM EDT


 

Airport Tracker/Info


-or-


 

Live Flight TrackerFlight Track Log ✈ UAL3818 ✈ 24-Apr-2013 ✈ KORD - KCLE

Flight Track Log - Related Links

Times and Time Zones

All times are in EDT time to prevent confusion due to time zone crossing. See the UAL3818 flight status page for this flight to view local times or setup timezone preferences in your user account.

Time Position Orientation Groundspeed Altitude Reporting Facility
EDT Latitude Longitude Course Direction KTS MPH feet Rate Location/Type
10:34PM 42.0167 -87.9333 77° East 197 227 2,700  Level Chicago TRACON
10:35PM 42.0667 -87.8833 37° Northeast 259 298 5,000 2,340 Climbing Chicago TRACON
10:36PM 42.0365 -87.5148 83° East  Level FlightAware Approximate
10:37PM 42.0487 -87.3812 83° East  Level FlightAware Approximate
10:37PM 42.0914 -87.6769 81° East 289 333 10,000  Level Chicago Center
10:38PM 42.0681 -87.2491 78° East  Level FlightAware Approximate
10:38PM 42.0958 -87.5631 87° East 302 348 12,100  Level Chicago Center
10:39PM 42.0888 -87.1173 77° East  Level FlightAware Approximate
10:39PM 42.1072 -87.4397 83° East 332 382 13,800  Level Chicago Center
10:40PM 42.1247 -87.3069 80° East 355 409 14,800 1,320 Climbing Chicago Center
10:41PM 42.1464 -87.1372 80° East 381 438 16,500 1,080 Climbing Chicago Center
10:42PM 42.1650 -86.9931 80° East 390 449 17,100 480 Climbing Chicago Center
10:43PM 42.1833 -86.8442 81° East 399 459 17,600 780 Climbing Chicago Center
10:44PM 42.2025 -86.6975 80° East 401 461 18,800 1,260 Climbing Chicago Center
10:45PM 42.1972 -86.5403 93° East 411 473 20,300 1,440 Climbing Chicago Center
10:46PM 42.1914 -86.3842 93° East 416 479 21,800 1,260 Climbing Chicago Center
10:47PM 42.1847 -86.2269 93° East 420 483 22,900 540 Climbing Chicago Center
10:48PM 42.1781 -86.0575 93° East 444 511 23,000  Climbing Chicago Center
10:49PM 42.1700 -85.8586 93° East 472 543 23,000  Level Chicago Center
10:50PM 42.1633 -85.6775 93° East 484 557 23,000  Level Chicago Center
10:51PM 42.1550 -85.4986 94° East 483 556 23,000  Level Chicago Center
10:52PM 42.1475 -85.3214 93° East 479 551 23,000  Level Chicago Center
10:53PM 42.1456 -85.2214 91° East 480 552 23,000  Level Cleveland Center
10:54PM 42.1361 -85.0414 94° East 480 552 23,000 -180 Level Cleveland Center
10:55PM 42.1278 -84.8728 94° East 475 547 22,700 -660 Descending Cleveland Center
10:56PM 42.1178 -84.6958 94° East 469 540 21,700 -900 Descending Cleveland Center
10:57PM 42.1111 -84.5217 93° East 464 534 21,000 -360 Descending Cleveland Center
10:58PM 42.1003 -84.3531 95° East 464 534 21,000  Level Cleveland Center
10:59PM 42.0872 -84.1703 95° East 457 526 21,000  Level Cleveland Center
11:00PM 42.0781 -83.9992 94° East 451 519 21,000  Level Cleveland Center
11:01PM 42.0683 -83.8308 94° East 451 519 21,000  Level Cleveland Center
11:02PM 42.0564 -83.6567 95° East 451 519 21,000  Level Cleveland Center
11:03PM 42.0461 -83.4856 95° East 456 525 21,000  Level Cleveland Center
11:04PM 42.0353 -83.3342 95° East 464 534 21,000  Level Cleveland Center
11:05PM 42.0186 -83.1628 97° East 464 534 21,000 -420 Level Cleveland Center
11:06PM 42.0014 -82.9944 98° East 464 534 20,200 -900 Descending Cleveland Center
11:07PM 41.9858 -82.8264 97° East 464 534 19,300 -1,200 Descending Cleveland Center
11:08PM 41.9681 -82.6636 98° East 448 516 17,800 -1,440 Descending Cleveland Center
11:08PM 41.9589 -82.5964 100° East 436 502 17,400 -1,680 Descending Cleveland Center
11:08PM 41.9456 -82.5261 104° East 427 491 16,400 -2,400 Descending Cleveland Center
11:09PM 41.9003 -82.3714 111° Southeast 409 471 13,800 -2,220 Descending Cleveland Center
11:10PM 41.8581 -82.2614 117° Southeast 395 455 12,200 -1,620 Descending Cleveland Center
11:11PM 41.7931 -82.1483 128° Southeast 380 437 10,800 -1,260 Descending Cleveland Center
11:12PM 41.7339 -82.0439 127° Southeast 300 345 9,700 -1,380 Descending Cleveland Center
11:13PM 41.6850 -81.9567 127° Southeast 288 331 8,100 -1,440 Descending Cleveland Center
11:14PM 41.6800 -81.8481 93° East 271 312 6,700 -1,020 Descending Cleveland Center
11:15PM 41.6789 -81.7508 91° East 249 287 6,000 -840 Descending Cleveland Center
11:16PM 41.6358 -81.6861 132° Southeast 242 278 5,100 -900 Descending Cleveland Center
11:17PM 41.5883 -81.6297 138° Southeast 213 245 4,300 -780 Descending Cleveland Center
11:18PM 41.5444 -81.6431 193° South 171 197 3,600 -660 Descending Cleveland Center
11:20PM 41.5169 -81.6925 233° Southwest 166 191 3,000 -420 Descending Cleveland Center
11:21PM 41.4831 -81.7417 227° Southwest 165 190 2,800 -240 Descending Cleveland Center